createdAt,value
2023-02-18T00:02:52.943Z,1.17
2023-02-18T00:07:56.615Z,1.73
2023-02-18T00:13:01.476Z,1.67
2023-02-18T00:18:07.604Z,1.40
2023-02-18T00:23:11.216Z,1.40
2023-02-18T00:28:14.827Z,1.20
2023-02-18T00:33:19.766Z,1.60
2023-02-18T00:38:23.379Z,1.13
2023-02-18T00:43:27.216Z,1.50
2023-02-18T00:48:32.725Z,0.97
2023-02-18T00:53:36.511Z,1.80
2023-02-18T00:58:40.288Z,1.10
2023-02-18T01:03:45.786Z,1.40
2023-02-18T01:08:51.054Z,1.83
2023-02-18T01:13:54.868Z,1.50
2023-02-18T01:18:59.855Z,1.27
2023-02-18T01:24:03.461Z,1.40
2023-02-18T01:29:07.032Z,1.43
2023-02-18T01:34:12.465Z,1.43
2023-02-18T01:39:16.069Z,1.30
2023-02-18T01:44:22.293Z,1.40
2023-02-18T01:49:30.029Z,1.10
2023-02-18T01:54:36.051Z,1.10
2023-02-18T01:59:46.566Z,1.00
2023-02-18T02:04:51.944Z,1.30
2023-02-18T02:09:57.455Z,1.17
2023-02-18T02:15:24.822Z,0.80
2023-02-18T02:20:56.292Z,1.00
2023-02-18T02:26:35.187Z,1.07
2023-02-18T02:32:08.085Z,0.87
2023-02-18T02:37:18.180Z,0.80
2023-02-18T02:42:31.505Z,1.20
2023-02-18T02:47:42.262Z,0.80
2023-02-18T02:52:51.476Z,0.80
2023-02-18T02:57:58.068Z,1.20
2023-02-18T03:03:57.791Z,1.47
2023-02-18T03:09:12.142Z,1.30
2023-02-18T03:14:28.488Z,1.50
2023-02-18T03:19:36.538Z,1.30
2023-02-18T03:24:44.349Z,0.90
2023-02-18T03:29:56.438Z,1.00
2023-02-18T03:35:04.008Z,0.77
2023-02-18T03:40:12.695Z,0.70
2023-02-18T03:45:16.390Z,0.70
2023-02-18T03:50:20.391Z,0.80
2023-02-18T03:55:25.378Z,0.60
2023-02-18T04:00:28.946Z,0.60
2023-02-18T04:05:32.552Z,0.40
2023-02-18T04:10:37.780Z,0.47
2023-02-18T04:15:41.506Z,0.30
2023-02-18T04:20:46.263Z,0.33
2023-02-18T04:25:51.216Z,0.40
2023-02-18T04:30:54.816Z,0.20
2023-02-18T04:35:58.456Z,0.30
2023-02-18T04:41:03.625Z,0.40
2023-02-18T04:46:07.503Z,0.20
2023-02-18T04:51:11.498Z,0.20
2023-02-18T04:56:16.446Z,0.10
2023-02-18T05:01:20.040Z,0.30
2023-02-18T05:06:23.635Z,0.10
2023-02-18T05:11:28.569Z,0.10
2023-02-18T05:16:32.135Z,0.00
2023-02-18T05:21:36.991Z,0.10
2023-02-18T05:26:41.976Z,0.10
2023-02-18T05:31:45.585Z,0.10
2023-02-18T05:36:49.255Z,0.10
2023-02-18T05:41:54.247Z,0.10
2023-02-18T05:46:57.995Z,0.10
2023-02-18T05:52:02.015Z,0.10
2023-02-18T05:57:07.212Z,0.10
2023-02-18T06:02:10.897Z,0.10
2023-02-18T06:07:15.013Z,0.10
2023-02-18T06:12:19.963Z,0.10
2023-02-18T06:17:23.620Z,0.20
2023-02-18T06:22:27.219Z,0.07
2023-02-18T06:27:32.126Z,0.10
2023-02-18T06:32:35.668Z,0.20
2023-02-18T06:37:39.262Z,0.20
2023-02-18T06:42:44.172Z,0.10
2023-02-18T06:47:47.763Z,0.10
2023-02-18T06:52:51.281Z,0.10
2023-02-18T06:57:56.208Z,0.00
2023-02-18T07:02:59.776Z,0.10
2023-02-18T07:08:03.331Z,0.00
2023-02-18T07:13:08.434Z,0.10
2023-02-18T07:18:12.081Z,0.10
2023-02-18T07:23:15.693Z,0.00
2023-02-18T07:28:20.672Z,0.17
2023-02-18T07:33:24.494Z,0.00
2023-02-18T07:38:28.769Z,0.10
2023-02-18T07:43:33.875Z,0.10
2023-02-18T07:48:37.538Z,0.10
2023-02-18T07:53:41.399Z,0.20
2023-02-18T07:58:46.626Z,0.10
2023-02-18T08:03:50.271Z,0.10
2023-02-18T08:08:53.808Z,0.00
2023-02-18T08:13:58.791Z,0.10
2023-02-18T08:19:03.524Z,0.10
2023-02-18T08:24:08.492Z,0.20
2023-02-18T08:29:13.765Z,0.10
2023-02-18T08:34:17.279Z,0.13
2023-02-18T08:39:20.880Z,0.30
2023-02-18T08:44:25.868Z,0.30
2023-02-18T08:49:29.543Z,0.30
2023-02-18T08:54:33.651Z,0.77
2023-02-18T08:59:38.936Z,0.70
2023-02-18T09:04:42.629Z,0.80
2023-02-18T09:09:46.557Z,0.70
2023-02-18T09:14:51.466Z,0.70
2023-02-18T09:19:55.056Z,0.60
2023-02-18T09:24:58.591Z,0.40
2023-02-18T09:30:03.916Z,1.27
2023-02-18T09:35:07.856Z,0.37
2023-02-18T09:54:00.635Z,0.70
2023-02-18T09:59:08.193Z,0.90
2023-02-18T10:04:16.986Z,0.80
2023-02-18T10:09:25.274Z,0.50
2023-02-18T10:14:29.967Z,0.70
2023-02-18T10:19:36.184Z,0.40
2023-02-18T10:24:43.924Z,0.50
2023-02-18T10:29:47.478Z,0.60
2023-02-18T10:34:55.214Z,0.80
2023-02-18T10:40:09.982Z,0.70
2023-02-18T10:45:23.350Z,0.80
2023-02-18T10:50:31.992Z,0.70
2023-02-18T10:55:39.812Z,0.80
2023-02-18T11:00:43.529Z,0.53
2023-02-18T11:05:52.470Z,0.83
2023-02-18T11:10:58.275Z,0.80
2023-02-18T11:16:04.284Z,0.90
2023-02-18T11:21:22.036Z,1.00
2023-02-18T11:26:31.778Z,0.80
2023-02-18T11:31:44.700Z,0.70
2023-02-18T11:36:49.596Z,0.53
2023-02-18T11:41:59.299Z,0.80
2023-02-18T11:47:06.132Z,0.50
2023-02-18T11:52:19.417Z,0.47
2023-02-18T11:57:26.442Z,0.33
2023-02-18T12:02:36.170Z,0.40
2023-02-18T12:07:45.475Z,0.40
2023-02-18T12:12:55.530Z,0.53
2023-02-18T12:18:28.374Z,0.30
2023-02-18T12:23:38.219Z,0.20
2023-02-18T12:29:01.569Z,0.40
2023-02-18T12:34:24.953Z,0.30
2023-02-18T12:39:41.536Z,0.40
2023-02-18T12:45:00.159Z,0.40
2023-02-18T12:50:35.336Z,0.30
2023-02-18T12:55:54.229Z,0.30
2023-02-18T13:01:25.536Z,0.40
2023-02-18T13:06:43.586Z,0.67
2023-02-18T13:11:58.523Z,0.40
2023-02-18T13:17:06.232Z,0.40
2023-02-18T13:22:16.041Z,0.30
2023-02-18T13:27:25.324Z,0.40
2023-02-18T13:32:37.423Z,0.30
2023-02-18T13:37:52.677Z,0.30
2023-02-18T13:42:56.669Z,0.30
2023-02-18T13:48:02.664Z,0.40
2023-02-18T13:53:24.433Z,0.27
2023-02-18T13:58:34.029Z,0.60
2023-02-18T14:03:58.265Z,3.50
2023-02-18T14:09:40.027Z,1.50
2023-02-18T14:14:44.040Z,0.83
2023-02-18T14:19:56.479Z,0.73
2023-02-18T14:25:06.097Z,0.77
2023-02-18T14:30:19.967Z,0.53
2023-02-18T14:35:31.968Z,0.30
2023-02-18T14:40:52.018Z,0.40
2023-02-18T14:46:11.099Z,0.50
2023-02-18T14:51:21.083Z,0.33
2023-02-18T14:56:25.170Z,0.30
2023-02-18T15:01:32.379Z,0.30
2023-02-18T15:06:39.788Z,0.60
2023-02-18T15:11:47.132Z,0.40
2023-02-18T15:16:51.422Z,0.40
2023-02-18T15:21:58.176Z,0.30
2023-02-18T15:27:04.498Z,0.50
2023-02-18T15:32:17.499Z,0.47
2023-02-18T15:37:22.523Z,0.57
2023-02-18T15:42:29.203Z,0.70
2023-02-18T15:47:34.219Z,0.40
2023-02-18T15:52:41.148Z,0.30
2023-02-18T15:57:44.945Z,0.40
2023-02-18T16:02:55.648Z,0.40
2023-02-18T16:08:02.755Z,0.57
2023-02-18T16:13:06.677Z,0.57
2023-02-18T16:18:23.194Z,0.30
2023-02-18T16:23:47.294Z,0.40
2023-02-18T16:28:53.714Z,0.40
2023-02-18T16:33:57.250Z,0.50
2023-02-18T16:39:02.340Z,0.30
2023-02-18T16:44:15.035Z,0.40
2023-02-18T16:49:20.239Z,0.40
2023-02-18T16:54:25.183Z,0.40
2023-02-18T16:59:28.859Z,0.60
2023-02-18T17:04:32.483Z,0.50
2023-02-18T17:09:38.371Z,0.50
2023-02-18T17:14:41.929Z,0.60
2023-02-18T17:19:46.058Z,0.50
2023-02-18T17:24:52.407Z,0.50
2023-02-18T17:29:56.095Z,0.50
2023-02-18T17:34:59.647Z,0.50
2023-02-18T17:40:04.771Z,0.50
2023-02-18T17:45:18.072Z,0.60
2023-02-18T17:50:21.660Z,0.70
2023-02-18T17:55:28.935Z,0.80
2023-02-18T18:00:35.115Z,0.80
2023-02-18T18:05:40.744Z,0.80
2023-02-18T18:10:50.477Z,0.80
2023-02-18T18:15:56.857Z,0.70
2023-02-18T18:21:02.573Z,0.70
2023-02-18T18:26:07.621Z,0.80
2023-02-18T18:31:15.585Z,0.80
2023-02-18T18:36:20.601Z,0.90
2023-02-18T18:41:25.603Z,0.90
2023-02-18T18:46:29.255Z,0.90
2023-02-18T18:51:33.758Z,0.80
2023-02-18T18:56:38.876Z,0.70
2023-02-18T19:01:42.801Z,0.90
2023-02-18T19:06:46.408Z,0.67
2023-02-18T19:11:51.363Z,0.80
2023-02-18T19:16:56.098Z,0.70
2023-02-18T19:21:59.702Z,0.70
2023-02-18T19:27:04.806Z,0.90
2023-02-18T19:32:08.381Z,0.70
2023-02-18T19:37:11.998Z,0.60
2023-02-18T19:42:17.015Z,0.80
2023-02-18T19:47:20.664Z,0.90
2023-02-18T19:52:24.272Z,0.90
2023-02-18T19:57:29.219Z,0.80
2023-02-18T20:02:33.213Z,0.70
2023-02-18T20:07:37.273Z,0.70
2023-02-18T20:12:42.835Z,0.70
2023-02-18T20:17:46.446Z,1.20
2023-02-18T20:22:50.246Z,0.73
2023-02-18T20:28:01.257Z,0.93
2023-02-18T20:33:05.672Z,0.80
2023-02-18T20:38:09.304Z,0.90
2023-02-18T20:43:14.366Z,0.80
2023-02-18T20:48:18.011Z,0.90
2023-02-18T20:53:21.833Z,0.80
2023-02-18T20:58:27.022Z,0.70
2023-02-18T21:03:31.461Z,0.90
2023-02-18T21:08:36.719Z,0.90
2023-02-18T21:13:43.284Z,0.90
2023-02-18T21:18:47.161Z,0.80
2023-02-18T21:23:51.115Z,0.60
2023-02-18T21:28:57.415Z,0.53
2023-02-18T21:34:01.493Z,0.50
2023-02-18T21:39:07.484Z,0.60
2023-02-18T21:44:12.407Z,0.40
2023-02-18T21:49:33.527Z,0.20
2023-02-18T21:54:39.658Z,0.30
2023-02-18T21:59:45.251Z,0.30
2023-02-18T22:04:49.797Z,0.30
2023-02-18T22:09:53.837Z,0.20
2023-02-18T22:14:58.809Z,0.30
2023-02-18T22:20:02.404Z,0.20
2023-02-18T22:25:08.311Z,0.20
2023-02-18T22:30:13.943Z,0.20
2023-02-18T22:35:17.945Z,0.30
2023-02-18T22:40:21.513Z,0.30
2023-02-18T22:45:26.568Z,0.10
2023-02-18T22:50:30.177Z,0.30
2023-02-18T22:55:34.073Z,0.20
2023-02-18T23:00:39.159Z,0.20
2023-02-18T23:05:42.811Z,0.27
2023-02-18T23:10:46.409Z,0.20
2023-02-18T23:15:58.930Z,0.20
2023-02-18T23:21:18.370Z,0.30
2023-02-18T23:26:24.114Z,0.20
2023-02-18T23:31:29.622Z,0.30
2023-02-18T23:36:35.361Z,0.40
2023-02-18T23:41:39.416Z,0.50
2023-02-18T23:46:45.566Z,0.30
2023-02-18T23:51:49.446Z,0.40
2023-02-18T23:56:53.086Z,0.40
